Time;durP1;ratioP1;P1;durP2;ratioP2;P2;SDS_P1;SDS_P2;PMS_P1;PMS_P2;Temp;Humidity;BMP_temperature;BMP_pressure;BME280_temperature;BME280_humidity;BME280_pressure;Samples;Min_cycle;Max_cycle;Signal;HPM_P1;HPM_P2
2021/05/14 00:00:13;;;;;;;1.02;0.93;;;24.00;35.20;;;;;;5009906;28;20273;-47
2021/05/14 00:02:39;;;;;;;0.88;0.88;;;24.00;35.20;;;;;;5009045;28;20249;-45
2021/05/14 00:05:05;;;;;;;0.95;0.90;;;24.00;35.20;;;;;;5009225;28;20207;-37
2021/05/14 00:07:31;;;;;;;0.80;0.80;;;23.90;35.10;;;;;;5009876;28;20257;-44
2021/05/14 00:09:57;;;;;;;1.17;1.10;;;24.00;35.20;;;;;;5009203;28;20223;-43
2021/05/14 00:12:26;;;;;;;1.55;1.05;;;23.90;35.10;;;;;;5008396;28;20222;-43
2021/05/14 00:14:52;;;;;;;1.88;0.90;;;23.90;35.20;;;;;;5006162;28;20231;-40
2021/05/14 00:17:18;;;;;;;1.65;1.00;;;24.00;35.20;;;;;;5004730;28;20203;-35
2021/05/14 00:19:44;;;;;;;1.15;1.10;;;24.00;35.20;;;;;;5008941;28;20633;-41
2021/05/14 00:22:10;;;;;;;0.80;0.80;;;23.90;35.10;;;;;;5009812;28;20218;-39
2021/05/14 00:24:36;;;;;;;1.38;0.95;;;23.90;35.10;;;;;;5009759;28;20195;-44
2021/05/14 00:27:02;;;;;;;1.65;1.00;;;23.90;35.10;;;;;;5006596;28;20667;-48
2021/05/14 00:29:28;;;;;;;1.08;0.98;;;23.90;35.10;;;;;;5013678;28;20215;-40
2021/05/14 00:31:54;;;;;;;0.68;0.68;;;23.90;35.10;;;;;;5013535;28;20575;-42
2021/05/14 00:34:20;;;;;;;1.08;0.98;;;23.90;35.10;;;;;;5013565;28;20574;-45
2021/05/14 00:36:48;;;;;;;1.17;1.08;;;23.90;35.10;;;;;;5013315;28;20234;-39
2021/05/14 00:39:14;;;;;;;1.00;0.98;;;23.90;35.10;;;;;;5014307;28;20730;-44
2021/05/14 00:41:40;;;;;;;1.45;1.00;;;24.00;35.20;;;;;;5013434;28;20211;-38
2021/05/14 00:44:06;;;;;;;1.42;0.93;;;23.90;35.00;;;;;;5013652;28;20257;-46
2021/05/14 00:46:32;;;;;;;0.90;0.90;;;23.90;34.90;;;;;;5013403;28;20207;-40
2021/05/14 00:48:58;;;;;;;1.88;1.17;;;23.90;35.10;;;;;;5014719;28;20246;-38
2021/05/14 00:51:24;;;;;;;1.15;1.00;;;23.90;35.10;;;;;;5012277;28;20235;-46
2021/05/14 00:53:50;;;;;;;0.90;0.90;;;23.90;35.00;;;;;;5013249;28;20211;-44
2021/05/14 00:56:16;;;;;;;2.88;1.10;;;23.90;35.00;;;;;;5012945;28;20198;-36
2021/05/14 00:58:42;;;;;;;1.08;1.00;;;23.90;35.70;;;;;;5013139;28;20677;-41
2021/05/14 01:01:08;;;;;;;0.90;0.90;;;23.90;34.90;;;;;;5011870;28;20250;-55
2021/05/14 01:03:34;;;;;;;0.93;0.93;;;23.90;35.00;;;;;;5013374;28;20561;-50
2021/05/14 01:06:00;;;;;;;0.93;0.90;;;23.90;34.90;;;;;;5012920;28;20664;-48
2021/05/14 01:08:26;;;;;;;0.80;0.80;;;23.90;34.90;;;;;;5013604;28;20210;-42
2021/05/14 01:10:52;;;;;;;1.02;0.95;;;23.90;35.00;;;;;;5005018;28;20231;-47
2021/05/14 01:13:18;;;;;;;1.05;1.00;;;23.90;35.00;;;;;;5010356;28;20680;-48
2021/05/14 01:15:44;;;;;;;0.88;0.82;;;23.90;35.10;;;;;;5011939;28;20207;-44
2021/05/14 01:18:10;;;;;;;1.15;1.05;;;23.90;35.00;;;;;;5009461;28;20203;-40
2021/05/14 01:20:36;;;;;;;1.83;1.10;;;23.90;35.00;;;;;;5011484;28;20218;-52
2021/05/14 01:23:02;;;;;;;1.77;1.20;;;23.90;35.10;;;;;;5013404;28;20669;-47
2021/05/14 01:25:28;;;;;;;1.10;0.75;;;23.90;35.00;;;;;;5012394;28;20219;-51
2021/05/14 01:27:54;;;;;;;0.80;0.80;;;23.90;35.00;;;;;;5012869;28;20699;-37
2021/05/14 01:30:20;;;;;;;0.73;0.73;;;23.90;34.80;;;;;;5007769;28;20240;-48
2021/05/14 01:32:46;;;;;;;0.80;0.80;;;23.90;35.00;;;;;;5011064;28;20218;-44
2021/05/14 01:35:12;;;;;;;1.55;0.80;;;23.90;35.00;;;;;;5012296;28;20199;-42
2021/05/14 01:37:38;;;;;;;1.05;1.00;;;23.90;35.00;;;;;;5012516;28;20340;-47
2021/05/14 01:40:04;;;;;;;0.98;0.90;;;23.90;35.00;;;;;;5012215;28;20226;-48
2021/05/14 01:42:30;;;;;;;1.10;1.00;;;23.90;34.90;;;;;;5012996;28;20207;-39
2021/05/14 01:44:56;;;;;;;0.90;0.90;;;23.90;34.90;;;;;;5011566;28;20210;-47
2021/05/14 01:47:22;;;;;;;1.13;1.02;;;23.90;34.80;;;;;;5012044;28;20214;-44
2021/05/14 01:49:48;;;;;;;1.10;1.00;;;23.90;34.90;;;;;;5011606;28;20572;-41
2021/05/14 01:52:14;;;;;;;1.10;1.00;;;23.90;34.90;;;;;;5013050;28;20257;-48
2021/05/14 01:54:40;;;;;;;1.00;1.00;;;23.90;34.90;;;;;;5011431;28;20558;-50
2021/05/14 01:57:06;;;;;;;0.82;0.80;;;23.90;34.90;;;;;;5011234;28;20230;-45
2021/05/14 01:59:32;;;;;;;1.20;1.00;;;23.90;34.90;;;;;;5011321;28;20239;-40
2021/05/14 02:01:58;;;;;;;1.48;1.00;;;23.90;34.90;;;;;;5011286;28;20199;-51
2021/05/14 02:04:24;;;;;;;1.20;0.82;;;23.90;34.90;;;;;;5011240;28;20211;-41
2021/05/14 02:06:50;;;;;;;1.05;0.90;;;23.90;34.90;;;;;;5009628;28;20553;-45
2021/05/14 02:09:16;;;;;;;1.00;0.90;;;23.90;34.80;;;;;;5008145;28;20227;-43
2021/05/14 02:11:42;;;;;;;1.08;0.95;;;23.90;35.00;;;;;;5011649;28;20230;-41
2021/05/14 02:14:08;;;;;;;0.80;0.73;;;23.90;35.10;;;;;;5009416;28;20262;-34
2021/05/14 02:16:34;;;;;;;0.82;0.82;;;23.90;35.10;;;;;;5009084;28;20254;-46
2021/05/14 02:19:00;;;;;;;1.15;1.00;;;23.90;34.90;;;;;;5011745;28;20668;-38
2021/05/14 02:21:26;;;;;;;0.90;0.90;;;23.90;34.80;;;;;;5010494;28;20261;-35
2021/05/14 02:23:52;;;;;;;1.10;1.00;;;23.90;34.90;;;;;;5011005;28;20852;-38
2021/05/14 02:26:18;;;;;;;1.25;0.90;;;23.90;34.90;;;;;;5010566;28;20211;-35
2021/05/14 02:28:44;;;;;;;0.90;0.90;;;23.90;34.90;;;;;;5011430;28;20230;-35
2021/05/14 02:31:10;;;;;;;0.93;0.93;;;23.90;35.00;;;;;;5011804;28;20234;-40
2021/05/14 02:33:36;;;;;;;1.13;0.95;;;23.90;35.10;;;;;;4992601;28;20215;-35
2021/05/14 02:36:02;;;;;;;0.80;0.80;;;23.90;35.00;;;;;;5011764;28;20199;-35
2021/05/14 02:38:28;;;;;;;0.90;0.90;;;23.90;35.20;;;;;;5010598;28;20214;-35
2021/05/14 02:40:54;;;;;;;1.10;1.00;;;23.90;35.20;;;;;;5010986;28;20668;-35
2021/05/14 02:43:20;;;;;;;1.67;1.10;;;23.90;35.40;;;;;;5010984;28;20199;-37
2021/05/14 02:45:46;;;;;;;1.00;0.90;;;23.90;35.20;;;;;;5011093;28;20199;-47
2021/05/14 02:48:13;;;;;;;0.90;0.90;;;23.90;35.20;;;;;;5011435;28;20234;-42
2021/05/14 02:50:39;;;;;;;1.08;0.90;;;23.90;35.20;;;;;;5010020;28;20223;-43
2021/05/14 02:53:05;;;;;;;0.90;0.85;;;23.90;35.20;;;;;;5011106;28;20206;-47
2021/05/14 02:55:31;;;;;;;1.10;1.10;;;23.90;35.20;;;;;;5010867;28;20198;-41
2021/05/14 02:57:57;;;;;;;1.15;0.80;;;23.90;35.20;;;;;;5008792;28;20249;-36
2021/05/14 03:00:23;;;;;;;0.80;0.80;;;23.90;35.10;;;;;;5009266;28;20231;-46
2021/05/14 03:02:49;;;;;;;0.80;0.80;;;23.90;35.20;;;;;;5009961;28;20199;-36
2021/05/14 03:05:15;;;;;;;1.10;1.00;;;23.90;35.40;;;;;;5010114;28;20228;-47
2021/05/14 03:07:41;;;;;;;1.00;0.90;;;23.90;35.40;;;;;;5010528;28;20257;-44
2021/05/14 03:10:07;;;;;;;0.95;0.88;;;23.90;35.30;;;;;;5009748;28;20671;-39
2021/05/14 03:12:33;;;;;;;3.35;2.00;;;23.90;35.20;;;;;;5004636;28;20200;-50
2021/05/14 03:14:59;;;;;;;0.90;0.80;;;23.90;35.30;;;;;;5008085;28;20226;-45
2021/05/14 03:17:25;;;;;;;1.35;0.98;;;23.90;35.40;;;;;;5009500;28;20211;-38
2021/05/14 03:19:51;;;;;;;1.15;1.08;;;23.90;35.20;;;;;;5010392;28;20215;-38
2021/05/14 03:22:17;;;;;;;0.85;0.85;;;23.90;35.40;;;;;;5010605;28;20211;-41
2021/05/14 03:24:43;;;;;;;2.35;1.00;;;23.90;35.40;;;;;;5010414;28;20329;-42
2021/05/14 03:27:09;;;;;;;1.02;0.90;;;23.90;35.30;;;;;;5010366;28;20203;-50
2021/05/14 03:29:35;;;;;;;0.77;0.77;;;23.90;35.40;;;;;;5010126;28;20597;-56
2021/05/14 03:32:03;;;;;;;1.23;1.00;;;23.90;35.60;;;;;;5010804;28;20203;-49
2021/05/14 03:34:29;;;;;;;1.13;0.98;;;23.90;35.50;;;;;;5009710;28;20209;-48
2021/05/14 03:36:55;;;;;;;0.93;0.90;;;23.90;35.50;;;;;;5010587;28;20207;-52
2021/05/14 03:39:24;;;;;;;0.80;0.80;;;23.90;35.60;;;;;;5010240;28;20226;-43
2021/05/14 03:41:52;;;;;;;1.80;1.00;;;23.90;35.70;;;;;;5010824;28;20207;-37
2021/05/14 03:44:18;;;;;;;1.95;1.25;;;23.90;35.90;;;;;;5009326;28;20207;-41
2021/05/14 03:46:44;;;;;;;1.42;0.88;;;23.90;35.90;;;;;;5010642;28;20257;-41
2021/05/14 03:49:10;;;;;;;0.80;0.80;;;23.90;35.80;;;;;;5006113;28;20621;-47
2021/05/14 03:51:36;;;;;;;0.75;0.75;;;23.90;35.80;;;;;;5009770;28;20238;-47
2021/05/14 03:54:02;;;;;;;0.90;0.90;;;23.90;35.90;;;;;;5009697;28;20199;-47
2021/05/14 03:56:28;;;;;;;1.08;0.98;;;23.90;35.70;;;;;;5005674;28;20900;-38
2021/05/14 03:58:54;;;;;;;1.13;1.00;;;23.90;35.60;;;;;;4994246;28;20246;-45
2021/05/14 04:01:20;;;;;;;1.08;0.90;;;23.90;35.60;;;;;;5007324;28;20222;-50
2021/05/14 04:03:46;;;;;;;1.20;0.90;;;23.90;35.70;;;;;;5007898;28;20204;-41
2021/05/14 04:06:12;;;;;;;0.88;0.85;;;23.90;35.50;;;;;;5009428;28;20214;-41
2021/05/14 04:08:38;;;;;;;1.23;0.80;;;23.90;35.50;;;;;;5001936;28;20235;-42
2021/05/14 04:16:28;;;;;;;0.88;0.88;;;23.90;35.40;;;;;;5007667;28;20274;-46
2021/05/14 04:18:54;;;;;;;0.85;0.85;;;23.90;35.20;;;;;;4991402;28;20861;-37
2021/05/14 04:21:20;;;;;;;0.80;0.80;;;23.90;35.20;;;;;;4992327;28;20210;-43
2021/05/14 04:23:46;;;;;;;0.70;0.70;;;23.90;35.20;;;;;;5003697;28;20212;-51
2021/05/14 04:26:12;;;;;;;1.25;1.05;;;23.90;35.20;;;;;;4991578;28;20357;-35
2021/05/14 04:28:39;;;;;;;2.45;0.90;;;23.90;35.20;;;;;;4999810;28;20227;-43
2021/05/14 04:31:04;;;;;;;0.80;0.80;;;23.90;35.20;;;;;;4991411;28;20235;-45
2021/05/14 04:33:30;;;;;;;1.65;0.98;;;23.90;35.10;;;;;;5006850;28;20203;-41
2021/05/14 04:35:56;;;;;;;0.90;0.90;;;23.90;35.10;;;;;;5009756;28;20210;-42
2021/05/14 04:38:22;;;;;;;0.80;0.80;;;23.90;35.10;;;;;;5009551;28;20546;-39
2021/05/14 04:40:48;;;;;;;0.70;0.70;;;23.90;35.00;;;;;;5010567;28;20263;-40
2021/05/14 04:43:15;;;;;;;0.75;0.75;;;23.90;35.00;;;;;;5009183;28;20207;-37
2021/05/14 04:45:41;;;;;;;0.90;0.90;;;23.90;34.80;;;;;;5008793;28;20290;-46
2021/05/14 04:48:10;;;;;;;1.67;0.82;;;23.90;34.90;;;;;;5010637;28;20199;-39
2021/05/14 04:50:36;;;;;;;0.90;0.90;;;23.90;35.00;;;;;;5008022;28;20230;-51
2021/05/14 04:53:02;;;;;;;1.00;0.73;;;23.90;34.90;;;;;;5009991;28;20203;-45
2021/05/14 04:55:28;;;;;;;1.92;1.00;;;23.90;34.90;;;;;;5006095;28;20668;-45
2021/05/14 04:57:54;;;;;;;0.90;0.90;;;23.90;34.90;;;;;;5010425;28;20210;-42
2021/05/14 05:00:20;;;;;;;1.00;0.90;;;23.90;34.90;;;;;;5006443;28;20246;-41
2021/05/14 05:02:46;;;;;;;1.05;0.95;;;23.90;34.90;;;;;;5008362;28;20219;-36
2021/05/14 05:05:12;;;;;;;1.30;1.20;;;23.90;35.00;;;;;;5008347;28;20639;-41
2021/05/14 05:07:38;;;;;;;0.80;0.80;;;23.90;34.90;;;;;;5005129;28;20203;-36
2021/05/14 05:10:04;;;;;;;0.85;0.85;;;23.90;34.90;;;;;;5009408;28;20231;-36
2021/05/14 05:12:30;;;;;;;0.95;0.82;;;23.90;35.00;;;;;;5008939;28;20242;-41
2021/05/14 05:14:56;;;;;;;1.27;1.17;;;23.90;34.80;;;;;;5010446;28;20226;-41
2021/05/14 05:17:22;;;;;;;2.30;0.95;;;24.00;35.00;;;;;;5013946;28;20579;-38
2021/05/14 05:19:48;;;;;;;0.70;0.70;;;23.90;34.90;;;;;;5013297;28;20314;-35
2021/05/14 05:22:14;;;;;;;0.82;0.82;;;24.00;35.00;;;;;;5013339;28;20206;-43
2021/05/14 05:24:40;;;;;;;1.23;1.13;;;23.90;35.00;;;;;;5009824;28;20209;-35
2021/05/14 05:27:06;;;;;;;1.02;0.90;;;23.90;34.90;;;;;;5009979;28;20261;-37
2021/05/14 05:29:32;;;;;;;2.15;0.90;;;24.00;34.90;;;;;;5013069;28;20219;-42
2021/05/14 05:31:58;;;;;;;1.42;1.33;;;24.00;34.90;;;;;;5009844;28;20690;-49
2021/05/14 05:34:25;;;;;;;0.80;0.80;;;23.90;35.50;;;;;;5010668;28;20653;-47
2021/05/14 05:36:51;;;;;;;0.80;0.80;;;23.90;34.90;;;;;;5009590;28;20659;-50
2021/05/14 05:39:17;;;;;;;0.90;0.90;;;24.00;34.90;;;;;;5009135;28;20219;-36
2021/05/14 05:41:43;;;;;;;2.28;1.00;;;24.00;34.80;;;;;;5012022;28;20278;-40
2021/05/14 05:44:09;;;;;;;3.03;1.50;;;23.90;35.60;;;;;;5008113;28;20203;-41
2021/05/14 05:46:35;;;;;;;1.60;1.08;;;23.90;36.30;;;;;;5012581;28;20241;-35
2021/05/14 05:49:01;;;;;;;1.08;0.98;;;24.00;36.70;;;;;;5011565;28;20267;-40
2021/05/14 05:51:29;;;;;;;1.55;1.30;;;24.00;36.30;;;;;;5002350;28;20239;-34
2021/05/14 05:53:55;;;;;;;1.65;0.93;;;24.00;36.20;;;;;;5011769;28;20203;-36
2021/05/14 05:56:21;;;;;;;1.17;0.88;;;24.00;36.10;;;;;;5013126;28;20249;-43
2021/05/14 05:58:47;;;;;;;2.55;1.10;;;24.00;35.70;;;;;;5013600;28;20231;-34
2021/05/14 06:01:13;;;;;;;1.80;1.00;;;24.00;35.70;;;;;;5013261;28;20593;-34
2021/05/14 06:03:39;;;;;;;1.80;0.95;;;24.00;36.80;;;;;;5009418;28;20305;-42
2021/05/14 06:06:05;;;;;;;4.82;1.00;;;24.00;37.40;;;;;;5002551;28;20210;-35
2021/05/14 06:08:31;;;;;;;2.60;1.20;;;24.10;37.60;;;;;;5006068;28;20652;-34
2021/05/14 06:10:57;;;;;;;4.72;1.67;;;24.10;38.20;;;;;;5006929;28;20231;-33
2021/05/14 06:13:24;;;;;;;2.58;1.27;;;24.00;38.10;;;;;;5011797;28;20206;-33
2021/05/14 06:15:51;;;;;;;3.08;1.60;;;24.00;37.30;;;;;;5012369;28;20203;-37
2021/05/14 06:18:18;;;;;;;4.82;1.27;;;24.00;38.10;;;;;;5013089;28;20262;-38
2021/05/14 06:20:45;;;;;;;3.22;1.35;;;24.00;38.10;;;;;;4997735;28;20637;-40
2021/05/14 06:23:12;;;;;;;3.38;1.13;;;24.00;38.10;;;;;;4993631;28;20227;-43
2021/05/14 06:25:38;;;;;;;5.55;1.30;;;24.00;38.90;;;;;;5010106;28;20349;-40
2021/05/14 06:28:04;;;;;;;3.08;1.60;;;24.00;38.10;;;;;;5009904;28;20342;-43
2021/05/14 06:30:30;;;;;;;1.90;1.05;;;23.80;33.90;;;;;;5007589;28;20235;-37
2021/05/14 06:32:56;;;;;;;1.75;1.08;;;20.90;29.20;;;;;;5011164;28;20242;-37
2021/05/14 06:35:22;;;;;;;2.28;1.10;;;19.90;30.50;;;;;;5011847;28;20207;-35
2021/05/14 06:37:51;;;;;;;1.77;1.00;;;18.50;30.50;;;;;;5011378;28;20212;-39
2021/05/14 06:40:17;;;;;;;1.90;1.00;;;18.50;31.00;;;;;;5012192;28;20211;-49
2021/05/14 06:42:43;;;;;;;1.90;1.00;;;18.80;32.60;;;;;;5011057;28;20259;-34
2021/05/14 06:45:09;;;;;;;1.77;1.00;;;19.60;33.30;;;;;;5011159;28;20212;-40
2021/05/14 06:47:35;;;;;;;1.40;0.83;;;20.80;32.30;;;;;;5004976;28;20209;-34
2021/05/14 06:50:04;;;;;;;1.10;0.93;;;21.70;31.40;;;;;;5012008;28;20224;-46
2021/05/14 06:52:30;;;;;;;0.90;0.90;;;22.10;31.50;;;;;;5010283;28;20261;-36
2021/05/14 06:54:56;;;;;;;0.90;0.90;;;22.50;31.80;;;;;;5009720;28;20656;-41
2021/05/14 06:57:22;;;;;;;1.40;1.00;;;22.70;32.00;;;;;;5010391;28;20239;-34
2021/05/14 06:59:48;;;;;;;1.00;0.90;;;22.90;32.40;;;;;;5007053;28;20235;-46
2021/05/14 07:02:14;;;;;;;2.63;0.93;;;23.10;32.70;;;;;;5009215;28;20214;-38
2021/05/14 07:04:40;;;;;;;0.77;0.77;;;23.20;33.00;;;;;;5011703;28;20206;-45
2021/05/14 07:07:06;;;;;;;1.27;0.93;;;23.30;33.40;;;;;;5009503;28;20659;-36
2021/05/14 07:09:32;;;;;;;0.88;0.85;;;23.30;33.60;;;;;;5010669;28;20219;-49
2021/05/14 07:11:58;;;;;;;1.27;1.17;;;23.40;33.90;;;;;;5005990;28;20239;-40
2021/05/14 07:14:24;;;;;;;0.60;0.60;;;23.50;34.40;;;;;;5009418;28;20305;-46
2021/05/14 07:16:50;;;;;;;0.80;0.80;;;23.60;34.70;;;;;;5010289;28;20196;-44
2021/05/14 07:19:16;;;;;;;0.80;0.73;;;23.60;35.00;;;;;;5010159;28;20512;-37
2021/05/14 07:21:42;;;;;;;0.90;0.90;;;23.70;35.20;;;;;;5011618;28;20196;-43
2021/05/14 07:24:08;;;;;;;0.80;0.80;;;23.80;35.60;;;;;;5008936;28;20214;-36
2021/05/14 07:26:34;;;;;;;0.80;0.80;;;23.80;35.80;;;;;;5008747;28;20215;-37
2021/05/14 07:29:02;;;;;;;2.08;0.80;;;23.80;35.70;;;;;;5008719;28;20231;-40
2021/05/14 07:31:28;;;;;;;1.05;0.80;;;23.80;35.90;;;;;;5007654;28;20318;-36
2021/05/14 07:33:54;;;;;;;3.33;0.82;;;23.80;35.80;;;;;;5010132;28;20211;-38
2021/05/14 07:36:20;;;;;;;2.70;0.88;;;23.80;35.60;;;;;;5008405;28;20210;-43
2021/05/14 07:38:46;;;;;;;1.10;0.77;;;23.80;35.90;;;;;;5009543;28;20230;-42
2021/05/14 07:41:12;;;;;;;0.73;0.73;;;23.80;35.80;;;;;;5010140;28;20203;-45
2021/05/14 07:43:38;;;;;;;0.95;0.85;;;23.80;36.00;;;;;;5008096;28;20229;-41
2021/05/14 07:46:04;;;;;;;2.47;0.90;;;23.80;35.90;;;;;;5008589;28;20210;-48
2021/05/14 07:48:30;;;;;;;1.25;0.80;;;23.80;35.00;;;;;;5008516;28;20219;-43
2021/05/14 07:50:56;;;;;;;2.15;1.10;;;23.80;35.30;;;;;;5009199;28;20238;-46
2021/05/14 07:53:22;;;;;;;3.33;1.10;;;23.80;35.60;;;;;;5010752;28;20242;-46
2021/05/14 07:55:48;;;;;;;3.08;0.90;;;23.80;35.50;;;;;;5009655;28;20982;-43
2021/05/14 07:58:14;;;;;;;2.35;0.70;;;23.80;36.00;;;;;;5000160;28;20311;-35
2021/05/14 08:00:40;;;;;;;2.78;0.90;;;23.80;35.90;;;;;;4999225;28;20676;-46
2021/05/14 08:03:06;;;;;;;2.95;0.80;;;23.80;36.20;;;;;;5010728;28;20298;-34
2021/05/14 08:05:32;;;;;;;1.48;0.77;;;23.80;36.00;;;;;;5006648;28;20613;-36
2021/05/14 08:07:58;;;;;;;1.48;0.80;;;23.90;36.50;;;;;;5005403;28;20235;-34
2021/05/14 08:10:24;;;;;;;1.52;0.73;;;23.90;36.30;;;;;;5009362;28;20273;-33
2021/05/14 08:12:50;;;;;;;0.88;0.88;;;23.90;36.30;;;;;;5005904;28;20679;-36
2021/05/14 08:15:16;;;;;;;1.05;0.80;;;23.90;36.00;;;;;;5007747;28;20203;-35
2021/05/14 08:17:42;;;;;;;2.33;0.93;;;23.90;36.60;;;;;;5008039;28;20277;-39
2021/05/14 08:20:09;;;;;;;2.05;0.80;;;23.90;36.40;;;;;;5010028;28;20210;-36
2021/05/14 08:22:35;;;;;;;2.42;1.30;;;23.90;37.30;;;;;;5010226;28;20203;-36
2021/05/14 08:25:01;;;;;;;1.40;1.27;;;23.90;37.70;;;;;;5009232;28;20257;-37
2021/05/14 08:27:27;;;;;;;1.60;0.82;;;23.90;40.00;;;;;;5004434;28;20227;-36
2021/05/14 08:29:53;;;;;;;1.38;0.90;;;23.90;41.30;;;;;;5007089;28;20195;-37
2021/05/14 08:32:19;;;;;;;2.15;0.90;;;23.90;40.60;;;;;;5005099;28;20214;-36
2021/05/14 08:34:45;;;;;;;2.28;1.15;;;23.90;40.30;;;;;;5008703;28;20210;-37
2021/05/14 08:37:11;;;;;;;2.15;0.80;;;23.90;41.10;;;;;;5010431;28;20204;-48
2021/05/14 08:39:37;;;;;;;3.83;1.05;;;23.90;40.70;;;;;;5010553;28;20210;-43
2021/05/14 08:42:02;;;;;;;1.02;0.80;;;23.90;41.70;;;;;;5009726;28;20656;-48
2021/05/14 08:44:28;;;;;;;1.10;0.90;;;23.80;43.60;;;;;;5009963;28;20211;-46
2021/05/14 08:46:54;;;;;;;0.82;0.80;;;23.90;44.90;;;;;;5009854;28;20230;-46
2021/05/14 08:49:20;;;;;;;1.52;0.70;;;23.90;44.20;;;;;;5011661;28;20229;-40
2021/05/14 08:51:46;;;;;;;1.40;0.70;;;23.90;44.70;;;;;;5013434;28;20306;-39
2021/05/14 08:54:13;;;;;;;1.05;0.80;;;23.90;44.70;;;;;;5012461;28;20622;-41
2021/05/14 08:56:39;;;;;;;2.00;0.80;;;23.90;45.80;;;;;;5012515;28;20290;-38
2021/05/14 08:59:05;;;;;;;1.02;0.98;;;23.90;45.80;;;;;;5011042;28;20253;-37
2021/05/14 09:01:31;;;;;;;1.67;0.80;;;23.90;45.50;;;;;;5010852;28;20565;-43
2021/05/14 09:03:57;;;;;;;1.02;0.80;;;23.90;44.70;;;;;;5013663;28;20265;-41
2021/05/14 09:06:23;;;;;;;2.40;1.00;;;23.90;44.90;;;;;;5005634;28;20215;-40
2021/05/14 09:08:49;;;;;;;1.02;0.80;;;23.90;44.80;;;;;;4996627;28;20231;-38
2021/05/14 09:11:15;;;;;;;3.60;0.93;;;24.00;45.40;;;;;;5013944;28;20242;-40
2021/05/14 09:13:41;;;;;;;1.75;0.80;;;24.00;46.20;;;;;;5013957;28;20749;-39
2021/05/14 09:16:07;;;;;;;2.05;0.95;;;24.00;46.20;;;;;;5014581;28;20206;-39
2021/05/14 09:18:33;;;;;;;1.52;0.68;;;24.00;44.60;;;;;;5014700;28;20316;-41
2021/05/14 09:20:59;;;;;;;1.05;0.80;;;24.00;44.60;;;;;;5014437;28;20254;-39
2021/05/14 09:23:25;;;;;;;1.17;0.80;;;24.00;45.00;;;;;;5014226;28;20203;-40
2021/05/14 09:25:51;;;;;;;1.35;0.80;;;24.00;44.30;;;;;;5014259;28;20226;-42
2021/05/14 09:28:17;;;;;;;1.02;0.95;;;24.00;43.80;;;;;;5014039;28;20699;-43
2021/05/14 09:30:43;;;;;;;0.98;0.80;;;24.00;43.10;;;;;;5014380;28;20579;-39
2021/05/14 09:33:09;;;;;;;1.02;0.90;;;24.00;42.90;;;;;;5014666;28;20572;-42
2021/05/14 09:35:35;;;;;;;1.67;1.05;;;24.00;43.20;;;;;;5013695;28;20199;-37
2021/05/14 09:38:01;;;;;;;0.88;0.75;;;24.00;43.10;;;;;;5009389;28;20227;-35
2021/05/14 09:40:27;;;;;;;1.10;0.77;;;24.00;43.60;;;;;;5003264;28;20722;-41
2021/05/14 09:42:53;;;;;;;2.30;0.90;;;24.00;42.80;;;;;;5011604;28;20203;-39
2021/05/14 09:45:19;;;;;;;6.00;1.10;;;24.00;43.00;;;;;;5009093;28;20676;-39
2021/05/14 09:47:45;;;;;;;3.00;1.10;;;24.00;43.30;;;;;;5011990;28;20231;-36
2021/05/14 09:50:11;;;;;;;1.25;0.90;;;24.10;43.60;;;;;;5013948;28;20226;-36
2021/05/14 09:52:37;;;;;;;0.80;0.80;;;24.10;49.20;;;;;;5012963;28;20203;-45
2021/05/14 09:55:03;;;;;;;1.02;0.82;;;24.10;47.20;;;;;;5012588;28;20269;-39
2021/05/14 09:57:34;;;;;;;1.85;0.93;;;24.10;48.60;;;;;;5009085;28;20238;-48
2021/05/14 10:00:03;;;;;;;1.00;0.90;;;24.10;45.50;;;;;;5007346;28;20221;-40
2021/05/14 10:02:30;;;;;;;2.75;0.88;;;24.20;44.00;;;;;;5010561;28;20210;-42
2021/05/14 10:04:56;;;;;;;3.88;0.93;;;24.20;42.80;;;;;;5011094;28;20210;-49
2021/05/14 10:07:22;;;;;;;1.40;0.82;;;24.20;43.90;;;;;;5012489;28;20230;-37
2021/05/14 10:09:51;;;;;;;2.67;0.80;;;24.10;43.50;;;;;;5012334;28;20543;-43
2021/05/14 10:12:17;;;;;;;1.20;0.90;;;24.10;44.60;;;;;;5007835;28;20660;-50
2021/05/14 10:14:43;;;;;;;2.08;0.80;;;24.10;44.70;;;;;;5011432;28;20207;-51
2021/05/14 10:17:09;;;;;;;1.98;0.90;;;24.10;44.90;;;;;;5010570;28;20220;-46
2021/05/14 10:19:35;;;;;;;0.88;0.70;;;24.10;45.80;;;;;;5012849;28;20214;-50
2021/05/14 10:22:01;;;;;;;3.45;0.90;;;24.10;44.70;;;;;;5012479;28;20199;-46
2021/05/14 10:24:27;;;;;;;1.90;0.95;;;24.10;44.70;;;;;;5009438;28;20564;-49
2021/05/14 10:26:53;;;;;;;2.17;0.70;;;24.10;43.80;;;;;;5011170;28;20223;-41
2021/05/14 10:29:19;;;;;;;1.75;0.80;;;24.00;44.70;;;;;;5011271;28;20231;-39
2021/05/14 10:31:45;;;;;;;1.95;0.80;;;24.10;46.20;;;;;;5012160;28;20691;-46
2021/05/14 10:34:11;;;;;;;1.55;0.90;;;24.00;46.50;;;;;;5011668;28;20214;-42
2021/05/14 10:36:37;;;;;;;3.05;0.93;;;24.10;45.10;;;;;;5007516;28;20539;-51
2021/05/14 10:39:03;;;;;;;3.38;0.82;;;24.10;44.40;;;;;;5001515;28;20207;-46
2021/05/14 10:41:29;;;;;;;1.33;1.00;;;24.10;44.90;;;;;;5010991;28;20203;-40
2021/05/14 10:43:55;;;;;;;1.20;0.80;;;24.00;44.30;;;;;;5011937;28;20218;-44
2021/05/14 10:46:21;;;;;;;1.50;1.02;;;24.10;45.20;;;;;;4993228;28;20219;-43
2021/05/14 10:48:47;;;;;;;3.08;1.10;;;24.10;46.20;;;;;;5010455;28;20215;-44
2021/05/14 10:51:13;;;;;;;2.25;1.05;;;24.00;45.30;;;;;;5011945;28;20276;-41
2021/05/14 10:53:39;;;;;;;1.10;0.80;;;24.10;45.50;;;;;;5012198;28;20958;-45
2021/05/14 10:56:05;;;;;;;1.02;0.90;;;24.10;43.10;;;;;;5011659;28;20247;-52
2021/05/14 10:58:31;;;;;;;2.42;1.00;;;24.20;38.30;;;;;;5009606;28;20223;-42
2021/05/14 11:00:57;;;;;;;2.10;0.80;;;24.10;40.50;;;;;;5008403;28;20230;-48
2021/05/14 11:03:23;;;;;;;1.75;0.90;;;24.20;41.30;;;;;;5010540;28;20211;-44
2021/05/14 11:05:49;;;;;;;1.20;0.90;;;24.20;39.70;;;;;;5009762;28;20199;-38
2021/05/14 11:08:16;;;;;;;0.88;0.80;;;24.20;39.60;;;;;;5011466;28;20219;-39
2021/05/14 11:10:42;;;;;;;1.80;0.90;;;24.20;40.60;;;;;;5009391;28;20234;-47
2021/05/14 11:13:08;;;;;;;2.65;1.10;;;24.20;41.10;;;;;;5008072;28;20203;-49
2021/05/14 11:15:34;;;;;;;2.97;1.30;;;24.20;40.90;;;;;;5010108;28;20209;-46
2021/05/14 11:18:00;;;;;;;2.95;1.02;;;24.20;41.80;;;;;;5011840;28;20253;-43
2021/05/14 11:20:26;;;;;;;2.22;0.95;;;24.20;42.70;;;;;;5009547;28;20208;-46
2021/05/14 11:22:52;;;;;;;5.65;2.40;;;24.30;43.50;;;;;;5009046;28;20217;-43
2021/05/14 11:25:20;;;;;;;11.07;3.90;;;24.20;43.40;;;;;;5009972;28;20203;-49
2021/05/14 11:27:51;;;;;;;17.08;5.65;;;24.20;40.70;;;;;;5010500;28;20223;-47
2021/05/14 11:30:17;;;;;;;12.18;4.95;;;24.30;40.80;;;;;;5009716;28;20729;-38
2021/05/14 11:32:44;;;;;;;12.00;3.97;;;24.30;41.10;;;;;;5011297;28;20261;-40
2021/05/14 11:35:11;;;;;;;13.38;4.90;;;24.20;41.20;;;;;;5009322;28;20200;-43
2021/05/14 11:37:37;;;;;;;13.35;5.22;;;24.30;42.20;;;;;;5010022;28;21091;-44
2021/05/14 11:40:03;;;;;;;14.35;5.50;;;24.30;43.10;;;;;;5006203;28;20207;-45
2021/05/14 11:42:29;;;;;;;12.90;4.57;;;24.30;43.20;;;;;;5011705;28;20207;-52
2021/05/14 11:44:55;;;;;;;12.38;4.43;;;24.30;44.10;;;;;;5009728;28;20206;-43
2021/05/14 11:47:21;;;;;;;12.02;4.50;;;24.30;45.30;;;;;;5006555;28;20608;-44
2021/05/14 11:49:47;;;;;;;14.70;4.20;;;24.30;46.20;;;;;;5010353;28;20214;-44
2021/05/14 11:52:13;;;;;;;10.73;4.22;;;24.30;47.10;;;;;;5009500;28;20385;-49
2021/05/14 11:54:39;;;;;;;13.57;4.05;;;24.30;47.00;;;;;;5009924;28;20202;-49
2021/05/14 11:57:05;;;;;;;11.38;3.70;;;24.30;46.20;;;;;;5010284;28;20219;-39
2021/05/14 11:59:31;;;;;;;9.23;3.33;;;24.30;46.50;;;;;;4992193;28;20563;-47
2021/05/14 12:01:57;;;;;;;14.40;3.58;;;24.30;48.20;;;;;;5010492;28;20199;-39
2021/05/14 12:04:23;;;;;;;11.82;3.45;;;24.30;48.10;;;;;;5009113;28;20200;-44
2021/05/14 12:06:49;;;;;;;12.23;4.68;;;24.20;49.10;;;;;;5006452;28;20219;-42
2021/05/14 12:09:15;;;;;;;10.43;3.42;;;24.30;48.50;;;;;;5010024;28;20213;-37
2021/05/14 12:11:41;;;;;;;9.15;4.30;;;24.30;44.90;;;;;;5010736;28;20226;-40
2021/05/14 12:14:07;;;;;;;11.27;4.63;;;24.20;44.30;;;;;;5008195;28;20198;-39
2021/05/14 12:16:33;;;;;;;8.68;3.75;;;24.30;44.30;;;;;;5020251;23;20222;-43
2021/05/14 12:19:02;;;;;;;10.23;3.42;;;24.20;43.80;;;;;;5029311;28;20209;-39
2021/05/14 12:21:28;;;;;;;8.68;3.40;;;24.20;43.90;;;;;;5030163;28;20264;-43
2021/05/14 12:23:54;;;;;;;9.32;3.45;;;24.30;44.10;;;;;;5029359;28;20659;-40
2021/05/14 12:26:20;;;;;;;10.45;3.80;;;24.20;43.90;;;;;;5032997;28;20250;-47
2021/05/14 12:28:46;;;;;;;8.93;3.50;;;24.30;44.00;;;;;;5030286;28;20535;-39
2021/05/14 12:31:12;;;;;;;5.60;2.22;;;24.20;42.70;;;;;;5031843;28;20299;-46
2021/05/14 12:33:38;;;;;;;8.60;2.05;;;24.20;40.20;;;;;;5032480;28;20558;-40
2021/05/14 12:36:04;;;;;;;5.97;2.03;;;24.10;39.00;;;;;;5030061;28;20256;-43
2021/05/14 12:38:30;;;;;;;2.60;1.20;;;24.00;36.80;;;;;;5031071;28;20195;-46
2021/05/14 12:40:56;;;;;;;3.05;1.40;;;24.00;36.00;;;;;;5033402;28;20198;-39
2021/05/14 12:43:22;;;;;;;2.50;1.20;;;24.00;42.40;;;;;;5034159;28;20199;-42